createdAt,value
2023-03-29T00:01:00.859Z,101271.34
2023-03-29T00:06:03.662Z,101283.53
2023-03-29T00:11:06.179Z,101275.22
2023-03-29T00:16:08.919Z,101275.00
2023-03-29T00:21:11.628Z,101276.41
2023-03-29T00:26:13.811Z,101286.16
2023-03-29T00:31:17.553Z,101280.03
2023-03-29T00:36:19.974Z,101283.09
2023-03-29T00:41:22.729Z,101286.03
2023-03-29T00:46:26.543Z,101299.09
2023-03-29T00:51:36.156Z,101288.63
2023-03-29T00:56:41.632Z,101291.72
2023-03-29T01:01:50.575Z,101295.63
2023-03-29T01:07:00.626Z,101285.84
2023-03-29T01:12:09.587Z,101276.03
2023-03-29T01:17:12.947Z,101280.25
2023-03-29T01:22:28.430Z,101283.19
2023-03-29T01:27:43.988Z,101276.84
2023-03-29T01:32:59.287Z,101271.94
2023-03-29T01:38:35.860Z,101271.37
2023-03-29T01:43:37.988Z,101262.84
2023-03-29T01:49:12.538Z,101261.03
2023-03-29T01:54:24.229Z,101266.53
2023-03-29T01:59:32.377Z,101260.09
2023-03-29T02:04:39.625Z,101263.16
2023-03-29T02:09:42.779Z,101264.19
2023-03-29T02:14:45.160Z,101271.09
2023-03-29T02:19:52.202Z,101269.81
2023-03-29T02:24:59.355Z,101270.34
2023-03-29T02:30:01.930Z,101269.50
2023-03-29T02:35:15.985Z,101272.50
2023-03-29T02:40:20.980Z,101273.13
2023-03-29T02:45:25.364Z,101277.50
2023-03-29T02:50:30.767Z,101268.56
2023-03-29T02:55:34.978Z,101279.38
2023-03-29T03:00:40.930Z,101287.72
2023-03-29T03:05:43.601Z,101283.88
2023-03-29T03:10:45.937Z,101285.91
2023-03-29T03:15:49.357Z,101296.62
2023-03-29T03:20:56.865Z,101296.31
2023-03-29T03:25:59.235Z,101294.28
2023-03-29T03:31:01.760Z,101288.94
2023-03-29T03:36:06.251Z,101302.25
2023-03-29T03:41:09.114Z,101295.47
2023-03-29T03:46:11.361Z,101305.09
2023-03-29T03:51:14.183Z,101306.16
2023-03-29T03:56:16.466Z,101305.09
2023-03-29T04:01:19.754Z,101307.97
2023-03-29T04:06:22.677Z,101300.69
2023-03-29T04:11:25.736Z,101300.75
2023-03-29T04:16:28.626Z,101305.63
2023-03-29T04:21:30.948Z,101294.22
2023-03-29T04:26:34.385Z,101301.78
2023-03-29T04:31:36.757Z,101299.69
2023-03-29T04:36:39.195Z,101306.38
2023-03-29T04:41:41.688Z,101300.09
2023-03-29T04:46:43.934Z,101303.06
2023-03-29T04:51:47.838Z,101300.97
2023-03-29T04:56:52.254Z,101299.78
2023-03-29T05:01:54.771Z,101301.13
2023-03-29T05:06:57.495Z,101313.59
2023-03-29T05:11:59.706Z,101319.19
2023-03-29T05:17:01.904Z,101318.53
2023-03-29T05:22:04.195Z,101312.09
2023-03-29T05:27:06.469Z,101310.97
2023-03-29T05:32:08.855Z,101305.78
2023-03-29T05:37:11.147Z,101304.34
2023-03-29T05:42:15.669Z,101308.97
2023-03-29T05:47:17.924Z,101310.72
2023-03-29T05:52:20.311Z,101316.56
2023-03-29T05:57:23.266Z,101320.84
2023-03-29T06:02:26.124Z,101321.37
2023-03-29T06:07:28.365Z,101325.44
2023-03-29T06:12:31.072Z,101321.13
2023-03-29T06:17:33.947Z,101330.56
2023-03-29T06:22:36.649Z,101319.25
2023-03-29T06:27:38.785Z,101331.81
2023-03-29T06:32:42.073Z,101329.72
2023-03-29T06:37:50.074Z,101338.06
2023-03-29T06:42:59.602Z,101348.25
2023-03-29T06:48:03.311Z,101343.84
2023-03-29T06:53:05.574Z,101342.75
2023-03-29T06:58:09.285Z,101345.87
2023-03-29T07:03:14.858Z,101349.69
2023-03-29T07:08:17.250Z,101339.66
2023-03-29T07:13:19.535Z,101361.56
2023-03-29T07:18:21.903Z,101358.03
2023-03-29T07:23:24.259Z,101364.69
2023-03-29T07:28:26.400Z,101366.22
2023-03-29T07:33:28.629Z,101365.59
2023-03-29T07:38:32.493Z,101370.28
2023-03-29T07:43:35.336Z,101376.13
2023-03-29T07:48:37.499Z,101373.19
2023-03-29T07:53:40.013Z,101373.97
2023-03-29T07:58:42.258Z,101370.81
2023-03-29T08:03:45.840Z,101381.41
2023-03-29T08:08:48.165Z,101389.19
2023-03-29T08:13:51.683Z,101367.31
2023-03-29T08:18:53.974Z,101368.09
2023-03-29T08:23:56.167Z,101371.22
2023-03-29T08:28:58.367Z,101361.44
2023-03-29T08:34:00.838Z,101356.97
2023-03-29T08:39:03.525Z,101351.50
2023-03-29T08:44:33.102Z,101347.81
2023-03-29T08:49:38.110Z,101351.44
2023-03-29T08:54:45.157Z,101342.91
2023-03-29T08:59:54.187Z,101340.12
2023-03-29T09:05:29.652Z,101336.78
2023-03-29T09:10:43.802Z,101325.78
2023-03-29T09:16:06.215Z,101316.69
2023-03-29T09:21:08.483Z,101326.81
2023-03-29T09:26:41.853Z,101299.94
2023-03-29T09:31:44.913Z,101307.25
2023-03-29T09:36:58.830Z,101304.19
2023-03-29T09:42:05.556Z,101289.84
2023-03-29T09:47:19.322Z,101297.13
2023-03-29T09:52:21.703Z,101283.63
2023-03-29T09:57:24.035Z,101270.63
2023-03-29T10:02:31.616Z,101269.06
2023-03-29T10:07:44.618Z,101261.19
2023-03-29T10:12:54.059Z,101258.09
2023-03-29T10:18:06.987Z,101249.94
2023-03-29T10:23:18.292Z,101240.03
2023-03-29T10:28:22.832Z,101233.66
2023-03-29T10:33:30.088Z,101226.59
2023-03-29T10:38:35.646Z,101220.69
2023-03-29T10:43:58.610Z,101205.94
2023-03-29T10:49:10.343Z,101208.62
2023-03-29T10:54:16.159Z,101204.94
2023-03-29T10:59:29.410Z,101202.84
2023-03-29T11:04:52.723Z,101197.06
2023-03-29T11:10:21.458Z,101189.31
2023-03-29T11:15:47.058Z,101177.75
2023-03-29T11:21:31.045Z,101164.34
2023-03-29T11:26:54.217Z,101167.31
2023-03-29T11:32:25.461Z,101165.59
2023-03-29T11:38:05.733Z,101165.16
2023-03-29T11:43:43.174Z,101156.19
2023-03-29T11:48:53.080Z,101145.63
2023-03-29T11:54:08.104Z,101141.03
2023-03-29T11:59:25.522Z,101127.03
2023-03-29T12:04:34.216Z,101133.03
2023-03-29T12:09:36.663Z,101134.47
2023-03-29T12:14:57.120Z,101131.31
2023-03-29T12:20:15.258Z,101118.72
2023-03-29T12:25:23.531Z,101109.09
2023-03-29T12:31:03.994Z,101116.22
2023-03-29T12:36:52.011Z,101103.34
2023-03-29T12:42:04.696Z,101085.25
2023-03-29T12:47:12.990Z,101085.81
2023-03-29T12:52:27.145Z,101077.72
2023-03-29T12:57:44.365Z,101078.78
2023-03-29T13:03:19.977Z,101076.81
2023-03-29T13:08:34.047Z,101070.91
2023-03-29T13:13:38.222Z,101071.19
2023-03-29T13:19:11.979Z,101065.59
2023-03-29T13:24:16.840Z,101056.31
2023-03-29T13:29:48.105Z,101057.81
2023-03-29T13:35:01.936Z,101050.34
2023-03-29T13:40:27.089Z,101040.66
2023-03-29T13:45:32.543Z,101045.62
2023-03-29T13:50:53.768Z,101031.22
2023-03-29T13:55:58.566Z,101029.53
2023-03-29T14:01:27.094Z,101005.88
2023-03-29T14:06:36.712Z,101012.59
2023-03-29T14:11:44.354Z,101013.91
2023-03-29T14:16:46.856Z,101009.94
2023-03-29T14:21:51.383Z,101017.34
2023-03-29T14:26:55.423Z,101011.25
2023-03-29T14:32:09.678Z,100999.09
2023-03-29T14:37:15.810Z,101008.41
2023-03-29T14:42:23.595Z,101004.88
2023-03-29T14:47:30.970Z,101010.19
2023-03-29T14:52:34.501Z,100999.81
2023-03-29T14:57:37.933Z,100999.81
2023-03-29T15:02:49.753Z,100993.72
2023-03-29T15:07:56.042Z,101001.66
2023-03-29T15:13:02.172Z,101007.66
2023-03-29T15:18:07.498Z,100992.06
2023-03-29T15:23:15.935Z,100998.34
2023-03-29T15:28:55.558Z,100992.25
2023-03-29T15:34:09.419Z,100983.72
2023-03-29T15:39:17.151Z,100983.31
2023-03-29T15:44:32.905Z,100977.31
2023-03-29T15:49:35.105Z,100976.88
2023-03-29T15:54:38.991Z,100969.44
2023-03-29T15:59:42.068Z,100973.41
2023-03-29T16:04:44.366Z,100954.69
2023-03-29T16:09:47.227Z,100964.00
2023-03-29T16:14:49.518Z,100963.31
2023-03-29T16:19:51.809Z,100957.09
2023-03-29T16:24:55.016Z,100942.88
2023-03-29T16:29:58.877Z,100952.06
2023-03-29T16:35:01.073Z,100944.25
2023-03-29T16:40:07.322Z,100935.31
2023-03-29T16:45:13.288Z,100937.94
2023-03-29T16:50:18.961Z,100942.41
2023-03-29T16:55:21.339Z,100940.06
2023-03-29T17:00:24.029Z,100942.47
2023-03-29T17:05:26.429Z,100945.44
2023-03-29T17:10:28.624Z,100942.59
2023-03-29T17:15:30.863Z,100940.12
2023-03-29T17:20:33.107Z,100938.72
2023-03-29T17:25:35.576Z,100943.62
2023-03-29T17:30:38.073Z,100942.03
2023-03-29T17:35:44.451Z,100949.19
2023-03-29T17:40:55.340Z,100950.75
2023-03-29T17:45:57.526Z,100956.25
2023-03-29T17:50:59.867Z,100961.44
2023-03-29T17:56:02.370Z,100952.69
2023-03-29T18:01:09.357Z,100962.75
2023-03-29T18:06:12.283Z,100968.44
2023-03-29T18:11:22.645Z,100973.91
2023-03-29T18:16:25.093Z,100982.59
2023-03-29T18:21:30.309Z,100981.25
2023-03-29T18:26:35.210Z,100989.41
2023-03-29T18:31:37.458Z,100991.75
2023-03-29T18:36:39.761Z,101000.47
2023-03-29T18:41:42.089Z,100997.44
2023-03-29T18:46:44.392Z,101003.22
2023-03-29T18:51:49.686Z,100993.84
2023-03-29T18:56:52.483Z,100989.69
2023-03-29T19:01:54.980Z,101000.34
2023-03-29T19:06:57.350Z,100998.09
2023-03-29T19:11:59.746Z,100992.28
2023-03-29T19:17:01.915Z,100996.59
2023-03-29T19:22:04.247Z,101009.34
2023-03-29T19:27:06.647Z,101001.97
2023-03-29T19:32:09.016Z,101014.34
2023-03-29T19:37:11.208Z,101004.84
2023-03-29T19:42:13.496Z,101005.38
2023-03-29T19:47:15.769Z,101010.03
2023-03-29T19:52:17.957Z,101005.28
2023-03-29T19:57:20.604Z,100998.84
2023-03-29T20:02:23.526Z,101003.03
2023-03-29T20:07:25.847Z,100997.50
2023-03-29T20:12:28.036Z,100988.09
2023-03-29T20:17:30.344Z,100998.25
2023-03-29T20:22:32.821Z,100999.75
2023-03-29T20:27:35.748Z,100989.44
2023-03-29T20:32:38.439Z,100986.94
2023-03-29T20:37:40.837Z,100988.94
2023-03-29T20:42:46.244Z,100981.44
2023-03-29T20:47:57.699Z,100978.47
2023-03-29T20:53:03.870Z,100966.31
2023-03-29T20:58:07.848Z,100975.81
2023-03-29T21:03:10.126Z,100968.59
2023-03-29T21:08:12.424Z,100964.59
2023-03-29T21:13:14.586Z,100965.16
2023-03-29T21:18:16.805Z,100968.00
2023-03-29T21:23:19.026Z,100955.22
2023-03-29T21:28:21.615Z,100962.81
2023-03-29T21:33:23.839Z,100968.16
2023-03-29T21:38:26.624Z,100964.94
2023-03-29T21:43:29.197Z,100966.97
2023-03-29T21:48:31.814Z,100960.28
2023-03-29T21:53:34.592Z,100960.84
2023-03-29T21:58:38.569Z,100948.38
2023-03-29T22:03:40.752Z,100950.97
2023-03-29T22:08:42.877Z,100956.84
2023-03-29T22:13:47.039Z,100954.34
2023-03-29T22:18:50.162Z,100956.84
2023-03-29T22:23:55.026Z,100960.00
2023-03-29T22:28:59.075Z,100953.50
2023-03-29T22:34:02.817Z,100951.38
2023-03-29T22:39:06.671Z,100952.13
2023-03-29T22:44:10.470Z,100952.94
2023-03-29T22:49:13.304Z,100956.66
2023-03-29T22:54:16.720Z,100962.47
2023-03-29T22:59:19.064Z,100961.94
2023-03-29T23:04:21.453Z,100974.69
2023-03-29T23:09:23.773Z,100965.78
2023-03-29T23:14:26.010Z,100960.38
2023-03-29T23:19:28.158Z,100974.28
2023-03-29T23:24:30.474Z,100963.16
2023-03-29T23:29:36.600Z,100970.75
2023-03-29T23:34:39.602Z,100963.44
2023-03-29T23:39:41.813Z,100968.31
2023-03-29T23:44:44.071Z,100962.75
2023-03-29T23:49:46.884Z,100966.31
2023-03-29T23:54:50.474Z,100967.22
2023-03-29T23:59:55.860Z,100956.09
